Terminal Aerodrome Forecast
Issued by NWS

Home | Current Version | Previous Version | Text Only | Print | Product List | Glossary On
Versions: 1 2 3 4 5 6 7 8 9 10 11 12 13 14 15
000
FTUS41 KPBZ 272100 AAB
TAFBVI
TAF AMD
KBVI 272159Z 2722/2818 34008KT P6SM SCT025 BKN035
      TEMPO 2722/2724 BKN025
     FM280200 36005KT P6SM SCT030=

USA.gov is the U.S. government's official web portal to all federal, state and local government web resources and services.